sensor_id;sensor_type;location;lat;lon;timestamp;temperature;humidity
75217;HTU21D;63800;51.972;5.682;2023-11-21T00:01:56;-11.26;118.99
75217;HTU21D;63800;51.972;5.682;2023-11-21T00:04:22;-11.36;118.99
75217;HTU21D;63800;51.972;5.682;2023-11-21T00:06:47;-11.39;118.99
75217;HTU21D;63800;51.972;5.682;2023-11-21T00:09:14;-11.47;118.99
75217;HTU21D;63800;51.972;5.682;2023-11-21T00:11:41;-11.49;118.99
75217;HTU21D;63800;51.972;5.682;2023-11-21T00:14:07;-11.41;118.99
75217;HTU21D;63800;51.972;5.682;2023-11-21T00:16:33;-11.31;118.99
75217;HTU21D;63800;51.972;5.682;2023-11-21T00:18:59;-11.29;118.99
75217;HTU21D;63800;51.972;5.682;2023-11-21T00:21:24;-11.26;118.99
75217;HTU21D;63800;51.972;5.682;2023-11-21T00:23:50;-11.26;118.99
75217;HTU21D;63800;51.972;5.682;2023-11-21T00:26:15;-11.34;118.99
75217;HTU21D;63800;51.972;5.682;2023-11-21T00:28:41;-11.44;118.99
75217;HTU21D;63800;51.972;5.682;2023-11-21T00:31:06;-11.39;118.99
75217;HTU21D;63800;51.972;5.682;2023-11-21T00:33:32;-11.44;118.99
75217;HTU21D;63800;51.972;5.682;2023-11-21T00:35:57;-11.53;118.99
75217;HTU21D;63800;51.972;5.682;2023-11-21T00:38:23;-11.55;118.99
75217;HTU21D;63800;51.972;5.682;2023-11-21T00:40:48;-11.45;118.99
75217;HTU21D;63800;51.972;5.682;2023-11-21T00:43:14;-11.36;118.99
75217;HTU21D;63800;51.972;5.682;2023-11-21T00:45:40;-11.31;118.99
75217;HTU21D;63800;51.972;5.682;2023-11-21T00:48:06;-11.25;118.99
75217;HTU21D;63800;51.972;5.682;2023-11-21T00:50:33;-11.23;118.99
75217;HTU21D;63800;51.972;5.682;2023-11-21T00:52:59;-11.19;118.99
75217;HTU21D;63800;51.972;5.682;2023-11-21T00:55:24;-11.14;118.99
75217;HTU21D;63800;51.972;5.682;2023-11-21T00:57:51;-11.12;118.99
75217;HTU21D;63800;51.972;5.682;2023-11-21T01:00:17;-11.29;118.99
75217;HTU21D;63800;51.972;5.682;2023-11-21T01:02:45;-11.44;118.99
75217;HTU21D;63800;51.972;5.682;2023-11-21T01:05:11;-11.56;118.99
75217;HTU21D;63800;51.972;5.682;2023-11-21T01:07:37;-11.65;118.99
75217;HTU21D;63800;51.972;5.682;2023-11-21T01:10:03;-11.68;118.99
75217;HTU21D;63800;51.972;5.682;2023-11-21T01:12:34;-11.74;118.99
75217;HTU21D;63800;51.972;5.682;2023-11-21T01:14:59;-11.75;118.99
75217;HTU21D;63800;51.972;5.682;2023-11-21T01:17:26;-11.81;118.99
75217;HTU21D;63800;51.972;5.682;2023-11-21T01:19:51;-11.84;118.99
75217;HTU21D;63800;51.972;5.682;2023-11-21T01:22:17;-11.80;118.99
75217;HTU21D;63800;51.972;5.682;2023-11-21T01:24:47;-11.80;118.99
75217;HTU21D;63800;51.972;5.682;2023-11-21T01:27:12;-11.82;118.99
75217;HTU21D;63800;51.972;5.682;2023-11-21T01:29:38;-11.69;118.99
75217;HTU21D;63800;51.972;5.682;2023-11-21T01:32:03;-11.76;118.99
75217;HTU21D;63800;51.972;5.682;2023-11-21T01:34:29;-11.79;118.99
75217;HTU21D;63800;51.972;5.682;2023-11-21T01:36:55;-11.84;118.99
75217;HTU21D;63800;51.972;5.682;2023-11-21T01:39:21;-11.86;118.99
75217;HTU21D;63800;51.972;5.682;2023-11-21T01:41:50;-11.82;118.99
75217;HTU21D;63800;51.972;5.682;2023-11-21T01:44:16;-11.76;118.99
75217;HTU21D;63800;51.972;5.682;2023-11-21T01:46:42;-11.70;118.99
75217;HTU21D;63800;51.972;5.682;2023-11-21T01:49:09;-11.60;118.99
75217;HTU21D;63800;51.972;5.682;2023-11-21T01:51:41;-11.56;118.99
75217;HTU21D;63800;51.972;5.682;2023-11-21T01:54:07;-11.54;118.99
75217;HTU21D;63800;51.972;5.682;2023-11-21T01:56:32;-11.55;118.99
75217;HTU21D;63800;51.972;5.682;2023-11-21T01:58:59;-11.63;118.99
75217;HTU21D;63800;51.972;5.682;2023-11-21T02:01:24;-11.56;118.99
75217;HTU21D;63800;51.972;5.682;2023-11-21T02:03:51;-11.56;118.99
75217;HTU21D;63800;51.972;5.682;2023-11-21T02:06:16;-11.55;118.99
75217;HTU21D;63800;51.972;5.682;2023-11-21T02:08:43;-11.62;118.99
75217;HTU21D;63800;51.972;5.682;2023-11-21T02:11:09;-11.63;118.99
75217;HTU21D;63800;51.972;5.682;2023-11-21T02:13:38;-11.66;118.99
75217;HTU21D;63800;51.972;5.682;2023-11-21T02:16:04;-11.67;118.99
75217;HTU21D;63800;51.972;5.682;2023-11-21T02:18:30;-11.67;118.99
75217;HTU21D;63800;51.972;5.682;2023-11-21T02:20:56;-11.67;118.99
75217;HTU21D;63800;51.972;5.682;2023-11-21T02:23:22;-11.65;118.99
75217;HTU21D;63800;51.972;5.682;2023-11-21T02:25:48;-11.59;118.99
75217;HTU21D;63800;51.972;5.682;2023-11-21T02:28:14;-11.54;118.99
75217;HTU21D;63800;51.972;5.682;2023-11-21T02:30:41;-11.51;118.99
75217;HTU21D;63800;51.972;5.682;2023-11-21T02:33:07;-11.64;118.99
75217;HTU21D;63800;51.972;5.682;2023-11-21T02:35:33;-11.71;118.99
75217;HTU21D;63800;51.972;5.682;2023-11-21T02:38:00;-11.80;118.99
75217;HTU21D;63800;51.972;5.682;2023-11-21T02:40:25;-11.86;118.99
75217;HTU21D;63800;51.972;5.682;2023-11-21T02:42:52;-11.76;118.99
75217;HTU21D;63800;51.972;5.682;2023-11-21T02:45:18;-11.78;118.99
75217;HTU21D;63800;51.972;5.682;2023-11-21T02:47:46;-11.74;118.99
75217;HTU21D;63800;51.972;5.682;2023-11-21T02:50:12;-11.65;118.99
75217;HTU21D;63800;51.972;5.682;2023-11-21T02:52:38;-11.52;118.99
75217;HTU21D;63800;51.972;5.682;2023-11-21T02:55:04;-11.49;118.99
75217;HTU21D;63800;51.972;5.682;2023-11-21T02:57:29;-11.60;118.99
75217;HTU21D;63800;51.972;5.682;2023-11-21T02:59:55;-11.62;118.99
75217;HTU21D;63800;51.972;5.682;2023-11-21T03:02:21;-11.65;118.99
75217;HTU21D;63800;51.972;5.682;2023-11-21T03:04:47;-11.54;118.99
75217;HTU21D;63800;51.972;5.682;2023-11-21T03:07:14;-11.45;118.99
75217;HTU21D;63800;51.972;5.682;2023-11-21T03:09:40;-11.34;118.99
75217;HTU21D;63800;51.972;5.682;2023-11-21T03:12:05;-11.44;118.99
75217;HTU21D;63800;51.972;5.682;2023-11-21T03:14:31;-11.40;118.99
75217;HTU21D;63800;51.972;5.682;2023-11-21T03:16:57;-11.31;118.99
75217;HTU21D;63800;51.972;5.682;2023-11-21T03:19:22;-11.19;118.99
75217;HTU21D;63800;51.972;5.682;2023-11-21T03:21:48;-11.16;118.99
75217;HTU21D;63800;51.972;5.682;2023-11-21T03:24:14;-11.24;118.99
75217;HTU21D;63800;51.972;5.682;2023-11-21T03:26:44;-11.31;118.99
75217;HTU21D;63800;51.972;5.682;2023-11-21T03:29:10;-11.40;118.99
75217;HTU21D;63800;51.972;5.682;2023-11-21T03:31:35;-11.40;118.99
75217;HTU21D;63800;51.972;5.682;2023-11-21T03:34:01;-11.38;118.99
75217;HTU21D;63800;51.972;5.682;2023-11-21T03:36:26;-11.26;118.99
75217;HTU21D;63800;51.972;5.682;2023-11-21T03:38:52;-11.32;118.99
75217;HTU21D;63800;51.972;5.682;2023-11-21T03:41:18;-11.42;118.99
75217;HTU21D;63800;51.972;5.682;2023-11-21T03:43:43;-11.40;118.99
75217;HTU21D;63800;51.972;5.682;2023-11-21T03:46:09;-11.31;118.99
75217;HTU21D;63800;51.972;5.682;2023-11-21T03:48:35;-11.23;118.99
75217;HTU21D;63800;51.972;5.682;2023-11-21T03:51:00;-11.11;118.99
75217;HTU21D;63800;51.972;5.682;2023-11-21T03:53:26;-11.23;118.99
75217;HTU21D;63800;51.972;5.682;2023-11-21T03:55:51;-11.36;118.99
75217;HTU21D;63800;51.972;5.682;2023-11-21T03:58:17;-11.21;118.99
75217;HTU21D;63800;51.972;5.682;2023-11-21T04:00:42;-11.27;118.99
75217;HTU21D;63800;51.972;5.682;2023-11-21T04:03:08;-11.30;118.99
75217;HTU21D;63800;51.972;5.682;2023-11-21T04:05:33;-11.31;118.99
75217;HTU21D;63800;51.972;5.682;2023-11-21T04:07:58;-11.35;118.99
75217;HTU21D;63800;51.972;5.682;2023-11-21T04:10:24;-11.44;118.99
75217;HTU21D;63800;51.972;5.682;2023-11-21T04:12:49;-11.32;118.99
75217;HTU21D;63800;51.972;5.682;2023-11-21T04:15:15;-11.46;118.99
75217;HTU21D;63800;51.972;5.682;2023-11-21T04:17:41;-11.45;118.99
75217;HTU21D;63800;51.972;5.682;2023-11-21T04:20:08;-11.32;118.99
75217;HTU21D;63800;51.972;5.682;2023-11-21T04:22:39;-11.23;118.99
75217;HTU21D;63800;51.972;5.682;2023-11-21T04:25:14;-11.31;118.99
75217;HTU21D;63800;51.972;5.682;2023-11-21T04:27:41;-11.24;118.99
75217;HTU21D;63800;51.972;5.682;2023-11-21T04:30:09;-11.23;118.99
75217;HTU21D;63800;51.972;5.682;2023-11-21T04:32:35;-11.25;118.99
75217;HTU21D;63800;51.972;5.682;2023-11-21T04:35:00;-11.27;118.99
75217;HTU21D;63800;51.972;5.682;2023-11-21T04:37:26;-11.23;118.99
75217;HTU21D;63800;51.972;5.682;2023-11-21T04:39:51;-11.14;118.99
75217;HTU21D;63800;51.972;5.682;2023-11-21T04:42:17;-11.19;118.99
75217;HTU21D;63800;51.972;5.682;2023-11-21T04:44:42;-11.19;118.99
75217;HTU21D;63800;51.972;5.682;2023-11-21T04:47:09;-11.16;118.99
75217;HTU21D;63800;51.972;5.682;2023-11-21T04:49:35;-11.14;118.99
75217;HTU21D;63800;51.972;5.682;2023-11-21T04:52:00;-11.10;118.99
75217;HTU21D;63800;51.972;5.682;2023-11-21T04:54:26;-11.17;118.99
75217;HTU21D;63800;51.972;5.682;2023-11-21T04:56:52;-11.18;118.99
75217;HTU21D;63800;51.972;5.682;2023-11-21T04:59:17;-11.16;118.99
75217;HTU21D;63800;51.972;5.682;2023-11-21T05:01:43;-11.06;118.99
75217;HTU21D;63800;51.972;5.682;2023-11-21T05:04:09;-11.08;118.99
75217;HTU21D;63800;51.972;5.682;2023-11-21T05:06:34;-11.16;118.99
75217;HTU21D;63800;51.972;5.682;2023-11-21T05:09:00;-11.18;118.99
75217;HTU21D;63800;51.972;5.682;2023-11-21T05:11:26;-11.20;118.99
75217;HTU21D;63800;51.972;5.682;2023-11-21T05:13:52;-11.09;118.99
75217;HTU21D;63800;51.972;5.682;2023-11-21T05:16:19;-11.12;118.99
75217;HTU21D;63800;51.972;5.682;2023-11-21T05:18:44;-11.09;118.99
75217;HTU21D;63800;51.972;5.682;2023-11-21T05:21:10;-11.05;118.99
75217;HTU21D;63800;51.972;5.682;2023-11-21T05:23:35;-11.08;118.99
75217;HTU21D;63800;51.972;5.682;2023-11-21T05:26:02;-11.05;118.99
75217;HTU21D;63800;51.972;5.682;2023-11-21T05:28:28;-10.90;118.99
75217;HTU21D;63800;51.972;5.682;2023-11-21T05:30:53;-11.00;118.99
75217;HTU21D;63800;51.972;5.682;2023-11-21T05:33:19;-11.00;118.99
75217;HTU21D;63800;51.972;5.682;2023-11-21T05:35:44;-10.96;118.99
75217;HTU21D;63800;51.972;5.682;2023-11-21T05:38:09;-11.07;118.99
75217;HTU21D;63800;51.972;5.682;2023-11-21T05:40:35;-11.04;118.99
75217;HTU21D;63800;51.972;5.682;2023-11-21T05:43:02;-11.08;118.99
75217;HTU21D;63800;51.972;5.682;2023-11-21T05:45:27;-11.12;118.99
75217;HTU21D;63800;51.972;5.682;2023-11-21T05:47:55;-10.84;118.99
75217;HTU21D;63800;51.972;5.682;2023-11-21T05:50:20;-10.56;118.99
75217;HTU21D;63800;51.972;5.682;2023-11-21T05:52:47;-10.86;118.99
75217;HTU21D;63800;51.972;5.682;2023-11-21T05:55:13;-11.01;118.99
75217;HTU21D;63800;51.972;5.682;2023-11-21T05:57:39;-11.02;118.99
75217;HTU21D;63800;51.972;5.682;2023-11-21T06:00:06;-10.93;118.99
75217;HTU21D;63800;51.972;5.682;2023-11-21T06:02:41;-11.09;118.99
75217;HTU21D;63800;51.972;5.682;2023-11-21T06:05:07;-11.04;118.99
75217;HTU21D;63800;51.972;5.682;2023-11-21T06:07:34;-11.15;118.99
75217;HTU21D;63800;51.972;5.682;2023-11-21T06:10:01;-11.06;118.99
75217;HTU21D;63800;51.972;5.682;2023-11-21T06:12:28;-10.97;118.99
75217;HTU21D;63800;51.972;5.682;2023-11-21T06:14:53;-10.99;118.99
75217;HTU21D;63800;51.972;5.682;2023-11-21T06:17:19;-11.07;118.99
75217;HTU21D;63800;51.972;5.682;2023-11-21T06:19:45;-11.18;118.99
75217;HTU21D;63800;51.972;5.682;2023-11-21T06:22:11;-11.17;118.99
75217;HTU21D;63800;51.972;5.682;2023-11-21T06:24:36;-11.15;118.99
75217;HTU21D;63800;51.972;5.682;2023-11-21T06:27:04;-11.32;118.99
75217;HTU21D;63800;51.972;5.682;2023-11-21T06:29:30;-11.29;118.99
75217;HTU21D;63800;51.972;5.682;2023-11-21T06:31:55;-11.36;118.99
75217;HTU21D;63800;51.972;5.682;2023-11-21T06:34:21;-11.32;118.99
75217;HTU21D;63800;51.972;5.682;2023-11-21T06:36:47;-11.44;118.99
75217;HTU21D;63800;51.972;5.682;2023-11-21T06:39:12;-11.38;118.99
75217;HTU21D;63800;51.972;5.682;2023-11-21T06:41:40;-11.26;118.99
75217;HTU21D;63800;51.972;5.682;2023-11-21T06:44:05;-11.07;118.99
75217;HTU21D;63800;51.972;5.682;2023-11-21T06:46:31;-11.17;118.99
75217;HTU21D;63800;51.972;5.682;2023-11-21T06:48:56;-11.27;118.99
75217;HTU21D;63800;51.972;5.682;2023-11-21T06:51:22;-11.25;118.99
75217;HTU21D;63800;51.972;5.682;2023-11-21T06:53:47;-11.26;118.99
75217;HTU21D;63800;51.972;5.682;2023-11-21T06:56:19;-11.17;118.99
75217;HTU21D;63800;51.972;5.682;2023-11-21T06:58:47;-11.12;118.99
75217;HTU21D;63800;51.972;5.682;2023-11-21T07:01:13;-11.06;118.99
75217;HTU21D;63800;51.972;5.682;2023-11-21T07:03:39;-11.07;118.99
75217;HTU21D;63800;51.972;5.682;2023-11-21T07:06:05;-11.10;118.99
75217;HTU21D;63800;51.972;5.682;2023-11-21T07:08:31;-11.09;118.99
75217;HTU21D;63800;51.972;5.682;2023-11-21T07:10:56;-11.07;118.99
75217;HTU21D;63800;51.972;5.682;2023-11-21T07:13:22;-10.80;118.99
75217;HTU21D;63800;51.972;5.682;2023-11-21T07:15:47;-10.72;118.99
75217;HTU21D;63800;51.972;5.682;2023-11-21T07:18:13;-10.84;118.99
75217;HTU21D;63800;51.972;5.682;2023-11-21T07:20:38;-10.91;118.99
75217;HTU21D;63800;51.972;5.682;2023-11-21T07:23:04;-10.95;118.99
75217;HTU21D;63800;51.972;5.682;2023-11-21T07:25:31;-10.97;118.99
75217;HTU21D;63800;51.972;5.682;2023-11-21T07:27:57;-11.07;118.99
75217;HTU21D;63800;51.972;5.682;2023-11-21T07:30:22;-10.99;118.99
75217;HTU21D;63800;51.972;5.682;2023-11-21T07:32:48;-10.85;118.99
75217;HTU21D;63800;51.972;5.682;2023-11-21T07:35:14;-10.89;118.99
75217;HTU21D;63800;51.972;5.682;2023-11-21T07:37:39;-10.92;118.99
75217;HTU21D;63800;51.972;5.682;2023-11-21T07:40:06;-10.93;118.99
75217;HTU21D;63800;51.972;5.682;2023-11-21T07:42:34;-10.89;118.99
75217;HTU21D;63800;51.972;5.682;2023-11-21T07:44:59;-10.87;118.99
75217;HTU21D;63800;51.972;5.682;2023-11-21T07:47:25;-10.82;118.99
75217;HTU21D;63800;51.972;5.682;2023-11-21T07:49:53;-10.90;118.99
75217;HTU21D;63800;51.972;5.682;2023-11-21T07:52:18;-10.89;118.99
75217;HTU21D;63800;51.972;5.682;2023-11-21T07:54:46;-10.93;118.99
75217;HTU21D;63800;51.972;5.682;2023-11-21T07:57:11;-10.93;118.99
75217;HTU21D;63800;51.972;5.682;2023-11-21T07:59:39;-10.90;118.99
75217;HTU21D;63800;51.972;5.682;2023-11-21T08:02:06;-10.82;118.99
75217;HTU21D;63800;51.972;5.682;2023-11-21T08:04:32;-10.81;118.99
75217;HTU21D;63800;51.972;5.682;2023-11-21T08:06:57;-10.67;118.99
75217;HTU21D;63800;51.972;5.682;2023-11-21T08:09:22;-10.65;118.99
75217;HTU21D;63800;51.972;5.682;2023-11-21T08:11:49;-10.68;118.99
75217;HTU21D;63800;51.972;5.682;2023-11-21T08:14:15;-10.74;118.99
75217;HTU21D;63800;51.972;5.682;2023-11-21T08:16:41;-10.80;118.99
75217;HTU21D;63800;51.972;5.682;2023-11-21T08:19:06;-10.65;118.99
75217;HTU21D;63800;51.972;5.682;2023-11-21T08:21:33;-10.68;118.99
75217;HTU21D;63800;51.972;5.682;2023-11-21T08:23:59;-10.74;118.99
75217;HTU21D;63800;51.972;5.682;2023-11-21T08:26:25;-10.76;118.99
75217;HTU21D;63800;51.972;5.682;2023-11-21T08:28:51;-10.78;118.99
75217;HTU21D;63800;51.972;5.682;2023-11-21T08:31:27;-10.76;118.99
75217;HTU21D;63800;51.972;5.682;2023-11-21T08:33:54;-10.77;118.99
75217;HTU21D;63800;51.972;5.682;2023-11-21T08:36:22;-10.78;118.99
75217;HTU21D;63800;51.972;5.682;2023-11-21T08:38:49;-10.77;118.99
75217;HTU21D;63800;51.972;5.682;2023-11-21T08:41:17;-10.80;118.99
75217;HTU21D;63800;51.972;5.682;2023-11-21T08:43:43;-10.82;118.99
75217;HTU21D;63800;51.972;5.682;2023-11-21T08:46:08;-10.78;118.99
75217;HTU21D;63800;51.972;5.682;2023-11-21T08:48:35;-10.74;118.99
75217;HTU21D;63800;51.972;5.682;2023-11-21T08:51:01;-10.73;118.99
75217;HTU21D;63800;51.972;5.682;2023-11-21T08:53:27;-10.76;118.99
75217;HTU21D;63800;51.972;5.682;2023-11-21T08:55:52;-10.76;118.99
75217;HTU21D;63800;51.972;5.682;2023-11-21T08:58:19;-10.79;118.99
75217;HTU21D;63800;51.972;5.682;2023-11-21T09:00:44;-10.84;118.99
75217;HTU21D;63800;51.972;5.682;2023-11-21T09:03:12;-10.87;118.99
75217;HTU21D;63800;51.972;5.682;2023-11-21T09:05:38;-10.87;118.99
75217;HTU21D;63800;51.972;5.682;2023-11-21T09:08:04;-10.88;118.99
75217;HTU21D;63800;51.972;5.682;2023-11-21T09:10:30;-10.90;118.99
75217;HTU21D;63800;51.972;5.682;2023-11-21T09:12:55;-10.90;118.99
75217;HTU21D;63800;51.972;5.682;2023-11-21T09:15:21;-10.92;118.99
75217;HTU21D;63800;51.972;5.682;2023-11-21T09:17:47;-10.94;118.99
75217;HTU21D;63800;51.972;5.682;2023-11-21T09:20:12;-10.92;118.99
75217;HTU21D;63800;51.972;5.682;2023-11-21T09:22:39;-10.90;118.99
75217;HTU21D;63800;51.972;5.682;2023-11-21T09:25:05;-10.93;118.99
75217;HTU21D;63800;51.972;5.682;2023-11-21T09:27:32;-10.90;118.99
75217;HTU21D;63800;51.972;5.682;2023-11-21T09:29:57;-10.91;118.99
75217;HTU21D;63800;51.972;5.682;2023-11-21T09:32:23;-10.90;118.99
75217;HTU21D;63800;51.972;5.682;2023-11-21T09:34:49;-10.93;118.99
75217;HTU21D;63800;51.972;5.682;2023-11-21T09:37:15;-10.93;118.99
75217;HTU21D;63800;51.972;5.682;2023-11-21T09:39:41;-10.97;118.99
75217;HTU21D;63800;51.972;5.682;2023-11-21T09:42:15;-10.90;118.99
75217;HTU21D;63800;51.972;5.682;2023-11-21T09:45:08;-10.90;118.99
75217;HTU21D;63800;51.972;5.682;2023-11-21T09:47:38;-10.81;118.99
75217;HTU21D;63800;51.972;5.682;2023-11-21T09:50:05;-10.80;118.99
75217;HTU21D;63800;51.972;5.682;2023-11-21T09:52:49;-10.77;118.99
75217;HTU21D;63800;51.972;5.682;2023-11-21T09:55:18;-10.64;118.99
75217;HTU21D;63800;51.972;5.682;2023-11-21T09:57:48;-10.31;118.99
75217;HTU21D;63800;51.972;5.682;2023-11-21T10:00:16;-9.87;118.99
75217;HTU21D;63800;51.972;5.682;2023-11-21T10:02:49;-9.92;118.99
75217;HTU21D;63800;51.972;5.682;2023-11-21T10:05:15;-10.22;118.99
75217;HTU21D;63800;51.972;5.682;2023-11-21T10:07:43;-10.33;118.99
75217;HTU21D;63800;51.972;5.682;2023-11-21T10:10:10;-10.41;118.99
75217;HTU21D;63800;51.972;5.682;2023-11-21T10:12:36;-10.22;118.99
75217;HTU21D;63800;51.972;5.682;2023-11-21T10:15:07;-10.25;118.99
75217;HTU21D;63800;51.972;5.682;2023-11-21T10:17:35;-10.21;118.99
75217;HTU21D;63800;51.972;5.682;2023-11-21T10:20:08;-10.25;118.99
75217;HTU21D;63800;51.972;5.682;2023-11-21T10:22:39;-9.90;118.99
75217;HTU21D;63800;51.972;5.682;2023-11-21T10:25:07;-9.79;118.99
75217;HTU21D;63800;51.972;5.682;2023-11-21T10:27:34;-9.88;118.99
75217;HTU21D;63800;51.972;5.682;2023-11-21T10:30:03;-10.13;118.99
75217;HTU21D;63800;51.972;5.682;2023-11-21T10:32:31;-10.26;118.99
75217;HTU21D;63800;51.972;5.682;2023-11-21T10:34:58;-10.28;118.99
75217;HTU21D;63800;51.972;5.682;2023-11-21T10:37:32;-10.23;118.99
75217;HTU21D;63800;51.972;5.682;2023-11-21T10:40:01;-10.18;118.99
75217;HTU21D;63800;51.972;5.682;2023-11-21T10:42:27;-10.00;118.99
75217;HTU21D;63800;51.972;5.682;2023-11-21T10:44:53;-10.15;118.99
75217;HTU21D;63800;51.972;5.682;2023-11-21T10:47:19;-10.21;118.99
75217;HTU21D;63800;51.972;5.682;2023-11-21T10:49:48;-10.03;118.99
75217;HTU21D;63800;51.972;5.682;2023-11-21T10:52:14;-9.97;118.99
75217;HTU21D;63800;51.972;5.682;2023-11-21T10:54:43;-10.18;118.99
75217;HTU21D;63800;51.972;5.682;2023-11-21T10:57:10;-10.27;118.99
75217;HTU21D;63800;51.972;5.682;2023-11-21T10:59:36;-10.31;118.99
75217;HTU21D;63800;51.972;5.682;2023-11-21T11:02:09;-10.05;118.99
75217;HTU21D;63800;51.972;5.682;2023-11-21T11:04:42;-10.16;118.99
75217;HTU21D;63800;51.972;5.682;2023-11-21T11:07:08;-10.32;118.99
75217;HTU21D;63800;51.972;5.682;2023-11-21T11:09:37;-10.21;118.99
75217;HTU21D;63800;51.972;5.682;2023-11-21T11:12:03;-10.11;118.99
75217;HTU21D;63800;51.972;5.682;2023-11-21T11:14:32;-9.87;118.99
75217;HTU21D;63800;51.972;5.682;2023-11-21T11:16:58;-10.05;118.99
75217;HTU21D;63800;51.972;5.682;2023-11-21T11:19:24;-10.16;118.99
75217;HTU21D;63800;51.972;5.682;2023-11-21T11:24:41;-10.15;118.99
75217;HTU21D;63800;51.972;5.682;2023-11-21T11:27:34;-10.13;118.99
75217;HTU21D;63800;51.972;5.682;2023-11-21T11:35:34;-9.89;118.99
75217;HTU21D;63800;51.972;5.682;2023-11-21T11:38:01;-9.87;118.99
75217;HTU21D;63800;51.972;5.682;2023-11-21T11:40:39;-9.72;118.99
75217;HTU21D;63800;51.972;5.682;2023-11-21T11:43:06;-9.89;118.99
75217;HTU21D;63800;51.972;5.682;2023-11-21T11:45:33;-9.70;118.99
75217;HTU21D;63800;51.972;5.682;2023-11-21T11:48:00;-9.71;118.99
75217;HTU21D;63800;51.972;5.682;2023-11-21T11:50:26;-9.88;118.99
75217;HTU21D;63800;51.972;5.682;2023-11-21T11:52:57;-9.93;118.99
75217;HTU21D;63800;51.972;5.682;2023-11-21T11:55:36;-10.16;118.99
75217;HTU21D;63800;51.972;5.682;2023-11-21T11:58:06;-10.00;118.99
75217;HTU21D;63800;51.972;5.682;2023-11-21T12:00:35;-10.05;118.99
75217;HTU21D;63800;51.972;5.682;2023-11-21T12:03:07;-9.88;118.99
75217;HTU21D;63800;51.972;5.682;2023-11-21T12:05:34;-9.92;118.99
75217;HTU21D;63800;51.972;5.682;2023-11-21T12:08:11;-9.76;118.99
75217;HTU21D;63800;51.972;5.682;2023-11-21T12:10:38;-9.93;118.99
75217;HTU21D;63800;51.972;5.682;2023-11-21T12:13:11;-10.12;118.99
75217;HTU21D;63800;51.972;5.682;2023-11-21T12:15:40;-10.02;118.99
75217;HTU21D;63800;51.972;5.682;2023-11-21T12:18:06;-10.12;118.99
75217;HTU21D;63800;51.972;5.682;2023-11-21T12:20:32;-10.03;118.99
75217;HTU21D;63800;51.972;5.682;2023-11-21T12:23:04;-10.01;118.99
75217;HTU21D;63800;51.972;5.682;2023-11-21T12:25:31;-9.66;118.99
75217;HTU21D;63800;51.972;5.682;2023-11-21T12:28:01;-9.52;118.99
75217;HTU21D;63800;51.972;5.682;2023-11-21T12:30:32;-9.54;118.99
75217;HTU21D;63800;51.972;5.682;2023-11-21T12:33:01;-9.66;118.99
75217;HTU21D;63800;51.972;5.682;2023-11-21T12:35:28;-9.74;118.99
75217;HTU21D;63800;51.972;5.682;2023-11-21T12:37:55;-9.57;118.99
75217;HTU21D;63800;51.972;5.682;2023-11-21T12:40:22;-9.56;118.99
75217;HTU21D;63800;51.972;5.682;2023-11-21T12:42:51;-9.73;118.99
75217;HTU21D;63800;51.972;5.682;2023-11-21T12:47:49;-9.87;118.99
75217;HTU21D;63800;51.972;5.682;2023-11-21T12:50:24;-9.82;118.99
75217;HTU21D;63800;51.972;5.682;2023-11-21T12:52:57;-9.70;118.99
75217;HTU21D;63800;51.972;5.682;2023-11-21T12:55:23;-9.88;118.99
75217;HTU21D;63800;51.972;5.682;2023-11-21T12:57:53;-9.66;118.99
75217;HTU21D;63800;51.972;5.682;2023-11-21T13:00:33;-9.62;118.99
75217;HTU21D;63800;51.972;5.682;2023-11-21T13:03:03;-9.70;118.99
75217;HTU21D;63800;51.972;5.682;2023-11-21T13:05:31;-9.62;118.99
75217;HTU21D;63800;51.972;5.682;2023-11-21T13:07:58;-9.58;118.99
75217;HTU21D;63800;51.972;5.682;2023-11-21T13:10:28;-9.72;118.99
75217;HTU21D;63800;51.972;5.682;2023-11-21T13:12:58;-9.72;118.99
75217;HTU21D;63800;51.972;5.682;2023-11-21T13:15:25;-9.78;118.99
75217;HTU21D;63800;51.972;5.682;2023-11-21T13:17:51;-9.63;118.99
75217;HTU21D;63800;51.972;5.682;2023-11-21T13:20:19;-9.61;118.99
75217;HTU21D;63800;51.972;5.682;2023-11-21T13:22:58;-9.63;118.99
75217;HTU21D;63800;51.972;5.682;2023-11-21T13:25:25;-9.59;118.99
75217;HTU21D;63800;51.972;5.682;2023-11-21T13:27:55;-9.71;118.99
75217;HTU21D;63800;51.972;5.682;2023-11-21T13:30:22;-9.55;118.99
75217;HTU21D;63800;51.972;5.682;2023-11-21T13:32:48;-9.48;118.99
75217;HTU21D;63800;51.972;5.682;2023-11-21T13:35:17;-9.41;118.99
75217;HTU21D;63800;51.972;5.682;2023-11-21T13:37:50;-9.41;118.99
75217;HTU21D;63800;51.972;5.682;2023-11-21T13:40:21;-9.51;118.99
75217;HTU21D;63800;51.972;5.682;2023-11-21T13:42:51;-9.39;118.99
75217;HTU21D;63800;51.972;5.682;2023-11-21T13:45:22;-9.61;118.99
75217;HTU21D;63800;51.972;5.682;2023-11-21T13:47:52;-9.39;118.99
75217;HTU21D;63800;51.972;5.682;2023-11-21T13:50:22;-9.25;118.99
75217;HTU21D;63800;51.972;5.682;2023-11-21T13:52:55;-9.27;118.99
75217;HTU21D;63800;51.972;5.682;2023-11-21T13:55:21;-9.42;118.99
75217;HTU21D;63800;51.972;5.682;2023-11-21T13:57:50;-9.54;118.99
75217;HTU21D;63800;51.972;5.682;2023-11-21T14:00:16;-9.48;118.99
75217;HTU21D;63800;51.972;5.682;2023-11-21T14:03:07;-9.59;118.99
75217;HTU21D;63800;51.972;5.682;2023-11-21T14:05:43;-9.41;118.99
75217;HTU21D;63800;51.972;5.682;2023-11-21T14:08:10;-9.31;118.99
75217;HTU21D;63800;51.972;5.682;2023-11-21T14:10:37;-9.42;118.99
75217;HTU21D;63800;51.972;5.682;2023-11-21T14:13:08;-9.30;118.99
75217;HTU21D;63800;51.972;5.682;2023-11-21T14:15:36;-9.52;118.99
75217;HTU21D;63800;51.972;5.682;2023-11-21T14:18:07;-9.43;118.99
75217;HTU21D;63800;51.972;5.682;2023-11-21T14:20:35;-9.48;118.99
75217;HTU21D;63800;51.972;5.682;2023-11-21T14:23:05;-9.62;118.99
75217;HTU21D;63800;51.972;5.682;2023-11-21T14:25:32;-9.62;118.99
75217;HTU21D;63800;51.972;5.682;2023-11-21T14:27:58;-9.76;118.99
75217;HTU21D;63800;51.972;5.682;2023-11-21T14:30:24;-9.82;118.99
75217;HTU21D;63800;51.972;5.682;2023-11-21T14:32:50;-9.90;118.99
75217;HTU21D;63800;51.972;5.682;2023-11-21T14:35:16;-9.97;118.99
75217;HTU21D;63800;51.972;5.682;2023-11-21T14:37:43;-9.96;118.99
75217;HTU21D;63800;51.972;5.682;2023-11-21T14:40:09;-9.97;118.99
75217;HTU21D;63800;51.972;5.682;2023-11-21T14:42:34;-9.94;118.99
75217;HTU21D;63800;51.972;5.682;2023-11-21T14:45:03;-9.89;118.99
75217;HTU21D;63800;51.972;5.682;2023-11-21T14:47:32;-10.11;118.99
75217;HTU21D;63800;51.972;5.682;2023-11-21T14:50:00;-9.87;118.99
75217;HTU21D;63800;51.972;5.682;2023-11-21T14:52:31;-9.82;118.99
75217;HTU21D;63800;51.972;5.682;2023-11-21T14:55:01;-9.78;118.99
75217;HTU21D;63800;51.972;5.682;2023-11-21T14:57:50;-9.84;118.99
75217;HTU21D;63800;51.972;5.682;2023-11-21T15:00:19;-9.89;118.99
75217;HTU21D;63800;51.972;5.682;2023-11-21T15:03:08;-9.92;118.99